sensor_id;sensor_type;location;lat;lon;timestamp;pressure;altitude;pressure_sealevel;temperature;humidity
27805;BME280;15183;51.350;11.102;2024-03-06T00:02:20;100271.09;;;10.71;74.23
27805;BME280;15183;51.350;11.102;2024-03-06T00:04:47;100266.31;;;10.54;74.13
27805;BME280;15183;51.350;11.102;2024-03-06T00:07:14;100286.91;;;10.52;73.58
27805;BME280;15183;51.350;11.102;2024-03-06T00:09:40;100271.53;;;10.29;73.55
27805;BME280;15183;51.350;11.102;2024-03-06T00:12:07;100284.41;;;10.19;73.83
27805;BME280;15183;51.350;11.102;2024-03-06T00:14:33;100250.78;;;9.80;73.37
27805;BME280;15183;51.350;11.102;2024-03-06T00:17:02;100290.66;;;9.85;73.56
27805;BME280;15183;51.350;11.102;2024-03-06T00:19:33;100285.44;;;9.72;74.15
27805;BME280;15183;51.350;11.102;2024-03-06T00:22:00;100303.53;;;9.75;74.38
27805;BME280;15183;51.350;11.102;2024-03-06T00:24:27;100310.03;;;9.73;74.76
27805;BME280;15183;51.350;11.102;2024-03-06T00:26:54;100306.00;;;9.70;74.97
27805;BME280;15183;51.350;11.102;2024-03-06T00:29:21;100307.63;;;9.71;74.95
27805;BME280;15183;51.350;11.102;2024-03-06T00:31:47;100290.94;;;9.64;74.82
27805;BME280;15183;51.350;11.102;2024-03-06T00:34:14;100315.50;;;9.78;75.13
27805;BME280;15183;51.350;11.102;2024-03-06T00:36:42;100294.16;;;9.66;74.67
27805;BME280;15183;51.350;11.102;2024-03-06T00:39:10;100324.94;;;9.67;74.27
27805;BME280;15183;51.350;11.102;2024-03-06T00:41:37;100320.06;;;9.57;74.49
27805;BME280;15183;51.350;11.102;2024-03-06T00:44:03;100330.03;;;9.55;74.53
27805;BME280;15183;51.350;11.102;2024-03-06T00:46:30;100319.66;;;9.47;74.41
27805;BME280;15183;51.350;11.102;2024-03-06T00:48:56;100312.16;;;9.30;74.36
27805;BME280;15183;51.350;11.102;2024-03-06T00:51:23;100284.72;;;8.97;74.72
27805;BME280;15183;51.350;11.102;2024-03-06T00:53:50;100321.09;;;9.22;74.66
27805;BME280;15183;51.350;11.102;2024-03-06T00:56:17;100321.13;;;9.16;74.78
27805;BME280;15183;51.350;11.102;2024-03-06T00:58:44;100326.81;;;9.12;74.59
27805;BME280;15183;51.350;11.102;2024-03-06T01:01:11;100343.47;;;9.13;74.81
27805;BME280;15183;51.350;11.102;2024-03-06T01:03:38;100292.22;;;8.74;74.30
27805;BME280;15183;51.350;11.102;2024-03-06T01:06:05;100321.50;;;8.86;74.99
27805;BME280;15183;51.350;11.102;2024-03-06T01:08:33;100327.81;;;8.85;75.24
27805;BME280;15183;51.350;11.102;2024-03-06T01:10:59;100333.50;;;8.81;75.54
27805;BME280;15183;51.350;11.102;2024-03-06T01:13:26;100341.22;;;8.90;75.35
27805;BME280;15183;51.350;11.102;2024-03-06T01:15:53;100308.47;;;8.57;75.20
27805;BME280;15183;51.350;11.102;2024-03-06T01:18:19;100347.53;;;8.89;75.35
27805;BME280;15183;51.350;11.102;2024-03-06T01:20:45;100344.47;;;8.92;75.80
27805;BME280;15183;51.350;11.102;2024-03-06T01:23:12;100332.47;;;8.89;75.88
27805;BME280;15183;51.350;11.102;2024-03-06T01:25:39;100346.94;;;8.93;75.04
27805;BME280;15183;51.350;11.102;2024-03-06T01:28:05;100341.03;;;8.91;75.01
27805;BME280;15183;51.350;11.102;2024-03-06T01:30:32;100344.28;;;8.87;75.67
27805;BME280;15183;51.350;11.102;2024-03-06T01:33:00;100323.53;;;8.77;75.74
27805;BME280;15183;51.350;11.102;2024-03-06T01:35:27;100354.03;;;8.93;75.87
27805;BME280;15183;51.350;11.102;2024-03-06T01:37:53;100333.91;;;8.85;76.00
27805;BME280;15183;51.350;11.102;2024-03-06T01:40:19;100342.66;;;8.92;76.41
27805;BME280;15183;51.350;11.102;2024-03-06T01:42:47;100350.38;;;9.07;76.29
27805;BME280;15183;51.350;11.102;2024-03-06T01:45:15;100341.44;;;9.08;76.00
27805;BME280;15183;51.350;11.102;2024-03-06T01:47:42;100355.06;;;9.25;75.99
27805;BME280;15183;51.350;11.102;2024-03-06T01:50:09;100339.84;;;9.21;76.05
27805;BME280;15183;51.350;11.102;2024-03-06T01:52:37;100356.47;;;9.41;75.56
27805;BME280;15183;51.350;11.102;2024-03-06T01:55:07;100363.41;;;9.43;75.15
27805;BME280;15183;51.350;11.102;2024-03-06T01:57:36;100348.78;;;9.40;75.23
27805;BME280;15183;51.350;11.102;2024-03-06T02:00:05;100337.38;;;9.19;75.18
27805;BME280;15183;51.350;11.102;2024-03-06T02:02:34;100362.59;;;9.42;75.22
27805;BME280;15183;51.350;11.102;2024-03-06T02:05:01;100336.56;;;9.25;74.88
27805;BME280;15183;51.350;11.102;2024-03-06T02:07:28;100328.44;;;9.00;74.46
27805;BME280;15183;51.350;11.102;2024-03-06T02:09:58;100316.63;;;8.96;74.45
27805;BME280;15183;51.350;11.102;2024-03-06T02:12:25;100363.00;;;9.19;74.02
27805;BME280;15183;51.350;11.102;2024-03-06T02:14:52;100368.50;;;9.17;74.29
27805;BME280;15183;51.350;11.102;2024-03-06T02:17:18;100365.44;;;9.07;74.23
27805;BME280;15183;51.350;11.102;2024-03-06T02:19:45;100365.03;;;9.03;74.56
27805;BME280;15183;51.350;11.102;2024-03-06T02:22:12;100354.81;;;8.80;74.31
27805;BME280;15183;51.350;11.102;2024-03-06T02:24:43;100362.78;;;8.87;74.25
27805;BME280;15183;51.350;11.102;2024-03-06T02:27:11;100376.59;;;8.89;74.80
27805;BME280;15183;51.350;11.102;2024-03-06T02:29:39;100386.56;;;8.93;74.41
27805;BME280;15183;51.350;11.102;2024-03-06T02:32:05;100368.47;;;8.83;74.43
27805;BME280;15183;51.350;11.102;2024-03-06T02:34:32;100366.00;;;8.82;74.63
27805;BME280;15183;51.350;11.102;2024-03-06T02:36:59;100355.66;;;8.80;74.78
27805;BME280;15183;51.350;11.102;2024-03-06T02:39:26;100377.22;;;8.91;74.62
27805;BME280;15183;51.350;11.102;2024-03-06T02:41:52;100388.97;;;8.88;74.35
27805;BME280;15183;51.350;11.102;2024-03-06T02:44:19;100386.13;;;8.76;74.38
27805;BME280;15183;51.350;11.102;2024-03-06T02:46:48;100384.69;;;8.74;74.67
27805;BME280;15183;51.350;11.102;2024-03-06T02:49:18;100393.03;;;8.77;74.71
27805;BME280;15183;51.350;11.102;2024-03-06T02:51:45;100376.75;;;8.67;75.24
27805;BME280;15183;51.350;11.102;2024-03-06T02:54:12;100386.28;;;8.68;74.80
27805;BME280;15183;51.350;11.102;2024-03-06T02:56:38;100401.56;;;8.73;74.32
27805;BME280;15183;51.350;11.102;2024-03-06T02:59:05;100395.84;;;8.69;74.67
27805;BME280;15183;51.350;11.102;2024-03-06T03:01:31;100382.59;;;8.56;74.46
27805;BME280;15183;51.350;11.102;2024-03-06T03:03:58;100395.63;;;8.57;74.26
27805;BME280;15183;51.350;11.102;2024-03-06T03:06:25;100395.41;;;8.59;74.88
27805;BME280;15183;51.350;11.102;2024-03-06T03:08:51;100394.41;;;8.53;75.10
27805;BME280;15183;51.350;11.102;2024-03-06T03:11:18;100386.84;;;8.50;74.77
27805;BME280;15183;51.350;11.102;2024-03-06T03:13:44;100388.47;;;8.51;74.78
27805;BME280;15183;51.350;11.102;2024-03-06T03:16:20;100387.72;;;8.57;75.08
27805;BME280;15183;51.350;11.102;2024-03-06T03:18:47;100396.66;;;8.56;74.64
27805;BME280;15183;51.350;11.102;2024-03-06T03:21:14;100406.59;;;8.54;74.10
27805;BME280;15183;51.350;11.102;2024-03-06T03:23:41;100391.25;;;8.43;74.28
27805;BME280;15183;51.350;11.102;2024-03-06T03:26:08;100409.56;;;8.44;74.28
27805;BME280;15183;51.350;11.102;2024-03-06T03:28:41;100412.13;;;8.31;73.90
27805;BME280;15183;51.350;11.102;2024-03-06T03:31:08;100409.47;;;8.24;74.40
27805;BME280;15183;51.350;11.102;2024-03-06T03:33:38;100432.41;;;8.23;74.36
27805;BME280;15183;51.350;11.102;2024-03-06T03:36:06;100438.69;;;8.22;74.83
27805;BME280;15183;51.350;11.102;2024-03-06T03:42:15;100416.03;;;8.00;74.75
27805;BME280;15183;51.350;11.102;2024-03-06T03:44:41;100358.13;;;7.56;74.96
27805;BME280;15183;51.350;11.102;2024-03-06T03:47:08;100431.63;;;7.94;75.18
27805;BME280;15183;51.350;11.102;2024-03-06T03:49:35;100414.91;;;7.80;75.67
27805;BME280;15183;51.350;11.102;2024-03-06T03:52:01;100381.34;;;7.67;75.29
27805;BME280;15183;51.350;11.102;2024-03-06T03:54:27;100423.28;;;7.91;75.14
27805;BME280;15183;51.350;11.102;2024-03-06T03:56:54;100429.41;;;7.98;75.29
27805;BME280;15183;51.350;11.102;2024-03-06T03:59:21;100425.59;;;8.01;75.24
27805;BME280;15183;51.350;11.102;2024-03-06T04:01:48;100430.03;;;8.00;75.49
27805;BME280;15183;51.350;11.102;2024-03-06T04:04:14;100431.91;;;8.06;75.29
27805;BME280;15183;51.350;11.102;2024-03-06T04:06:40;100448.84;;;8.19;75.03
27805;BME280;15183;51.350;11.102;2024-03-06T04:09:07;100432.34;;;8.10;74.88
27805;BME280;15183;51.350;11.102;2024-03-06T04:11:39;100444.75;;;8.16;75.23
27805;BME280;15183;51.350;11.102;2024-03-06T04:14:05;100413.69;;;7.83;75.20
27805;BME280;15183;51.350;11.102;2024-03-06T04:16:33;100449.22;;;8.16;74.79
27805;BME280;15183;51.350;11.102;2024-03-06T04:19:00;100450.41;;;8.13;75.10
27805;BME280;15183;51.350;11.102;2024-03-06T04:21:28;100378.88;;;7.66;74.56
27805;BME280;15183;51.350;11.102;2024-03-06T04:23:54;100390.06;;;7.68;74.77
27805;BME280;15183;51.350;11.102;2024-03-06T04:26:21;100436.53;;;7.97;75.21
27805;BME280;15183;51.350;11.102;2024-03-06T04:28:47;100435.13;;;8.02;75.60
27805;BME280;15183;51.350;11.102;2024-03-06T04:31:14;100407.41;;;7.84;74.86
27805;BME280;15183;51.350;11.102;2024-03-06T04:33:41;100450.25;;;8.21;75.58
27805;BME280;15183;51.350;11.102;2024-03-06T04:36:09;100420.09;;;8.02;75.66
27805;BME280;15183;51.350;11.102;2024-03-06T04:38:36;100455.41;;;8.36;75.20
27805;BME280;15183;51.350;11.102;2024-03-06T04:41:06;100471.94;;;8.45;75.20
27805;BME280;15183;51.350;11.102;2024-03-06T04:43:33;100465.06;;;8.51;75.35
27805;BME280;15183;51.350;11.102;2024-03-06T04:45:59;100460.00;;;8.49;74.83
27805;BME280;15183;51.350;11.102;2024-03-06T04:48:26;100439.81;;;8.42;75.08
27805;BME280;15183;51.350;11.102;2024-03-06T04:50:52;100446.56;;;8.51;74.57
27805;BME280;15183;51.350;11.102;2024-03-06T04:53:19;100463.91;;;8.67;74.24
27805;BME280;15183;51.350;11.102;2024-03-06T04:55:49;100457.00;;;8.59;74.61
27805;BME280;15183;51.350;11.102;2024-03-06T04:58:16;100459.81;;;8.58;74.18
27805;BME280;15183;51.350;11.102;2024-03-06T05:00:43;100469.81;;;8.69;74.32
27805;BME280;15183;51.350;11.102;2024-03-06T05:03:09;100475.09;;;8.69;74.22
27805;BME280;15183;51.350;11.102;2024-03-06T05:05:36;100449.44;;;8.49;74.38
27805;BME280;15183;51.350;11.102;2024-03-06T05:08:03;100463.38;;;8.43;73.97
27805;BME280;15183;51.350;11.102;2024-03-06T05:10:29;100478.34;;;8.64;74.73
27805;BME280;15183;51.350;11.102;2024-03-06T05:12:56;100430.25;;;8.34;74.51
27805;BME280;15183;51.350;11.102;2024-03-06T05:15:22;100430.47;;;8.46;74.09
27805;BME280;15183;51.350;11.102;2024-03-06T05:17:49;100478.00;;;8.81;74.68
27805;BME280;15183;51.350;11.102;2024-03-06T05:20:15;100499.19;;;9.01;74.56
27805;BME280;15183;51.350;11.102;2024-03-06T05:22:43;100482.13;;;8.97;74.20
27805;BME280;15183;51.350;11.102;2024-03-06T05:25:09;100462.34;;;8.86;73.92
27805;BME280;15183;51.350;11.102;2024-03-06T05:27:36;100503.94;;;9.12;74.48
27805;BME280;15183;51.350;11.102;2024-03-06T05:30:05;100504.56;;;9.28;74.11
27805;BME280;15183;51.350;11.102;2024-03-06T05:32:31;100499.72;;;9.32;73.90
27805;BME280;15183;51.350;11.102;2024-03-06T05:34:58;100496.03;;;9.26;73.48
27805;BME280;15183;51.350;11.102;2024-03-06T05:37:26;100508.47;;;9.39;73.35
27805;BME280;15183;51.350;11.102;2024-03-06T05:39:52;100509.47;;;9.38;73.02
27805;BME280;15183;51.350;11.102;2024-03-06T05:42:19;100501.72;;;9.36;72.79
27805;BME280;15183;51.350;11.102;2024-03-06T05:44:46;100447.97;;;9.02;72.88
27805;BME280;15183;51.350;11.102;2024-03-06T05:47:15;100512.34;;;9.43;73.08
27805;BME280;15183;51.350;11.102;2024-03-06T05:49:41;100517.41;;;9.45;73.03
27805;BME280;15183;51.350;11.102;2024-03-06T05:52:08;100514.56;;;9.46;72.82
27805;BME280;15183;51.350;11.102;2024-03-06T05:54:34;100529.84;;;9.51;72.90
27805;BME280;15183;51.350;11.102;2024-03-06T05:57:01;100526.81;;;9.54;72.99
27805;BME280;15183;51.350;11.102;2024-03-06T05:59:29;100514.16;;;9.49;73.32
27805;BME280;15183;51.350;11.102;2024-03-06T06:01:56;100515.16;;;9.41;73.23
27805;BME280;15183;51.350;11.102;2024-03-06T06:04:22;100520.50;;;9.55;73.08
27805;BME280;15183;51.350;11.102;2024-03-06T06:06:49;100534.94;;;9.66;72.88
27805;BME280;15183;51.350;11.102;2024-03-06T06:09:16;100508.06;;;9.42;72.83
27805;BME280;15183;51.350;11.102;2024-03-06T06:11:44;100543.69;;;9.60;73.02
27805;BME280;15183;51.350;11.102;2024-03-06T06:14:11;100559.38;;;9.81;72.20
27805;BME280;15183;51.350;11.102;2024-03-06T06:16:39;100555.53;;;9.77;72.09
27805;BME280;15183;51.350;11.102;2024-03-06T06:19:07;100549.63;;;9.75;71.95
27805;BME280;15183;51.350;11.102;2024-03-06T06:21:34;100562.22;;;9.80;72.07
27805;BME280;15183;51.350;11.102;2024-03-06T06:24:03;100544.31;;;9.68;71.57
27805;BME280;15183;51.350;11.102;2024-03-06T06:26:31;100561.41;;;9.73;71.52
27805;BME280;15183;51.350;11.102;2024-03-06T06:28:58;100570.97;;;9.74;71.11
27805;BME280;15183;51.350;11.102;2024-03-06T06:31:26;100560.75;;;9.50;70.74
27805;BME280;15183;51.350;11.102;2024-03-06T06:33:53;100575.84;;;9.50;71.39
27805;BME280;15183;51.350;11.102;2024-03-06T06:36:21;100537.09;;;9.22;71.42
27805;BME280;15183;51.350;11.102;2024-03-06T06:38:49;100546.03;;;9.21;71.22
27805;BME280;15183;51.350;11.102;2024-03-06T06:41:17;100593.91;;;9.46;71.69
27805;BME280;15183;51.350;11.102;2024-03-06T06:43:43;100581.28;;;9.35;71.46
27805;BME280;15183;51.350;11.102;2024-03-06T06:46:10;100607.13;;;9.39;71.44
27805;BME280;15183;51.350;11.102;2024-03-06T06:48:36;100543.28;;;8.94;71.09
27805;BME280;15183;51.350;11.102;2024-03-06T06:51:04;100618.84;;;9.23;71.22
27805;BME280;15183;51.350;11.102;2024-03-06T06:53:31;100615.97;;;9.11;71.11
27805;BME280;15183;51.350;11.102;2024-03-06T06:55:58;100608.19;;;9.03;71.74
27805;BME280;15183;51.350;11.102;2024-03-06T06:58:24;100561.41;;;8.62;71.09
27805;BME280;15183;51.350;11.102;2024-03-06T07:00:53;100624.22;;;8.95;71.28
27805;BME280;15183;51.350;11.102;2024-03-06T07:03:20;100639.59;;;8.85;72.10
27805;BME280;15183;51.350;11.102;2024-03-06T07:05:49;100627.59;;;8.82;71.76
27805;BME280;15183;51.350;11.102;2024-03-06T07:08:16;100619.81;;;8.74;71.52
27805;BME280;15183;51.350;11.102;2024-03-06T07:10:43;100637.97;;;8.83;71.89
27805;BME280;15183;51.350;11.102;2024-03-06T07:13:09;100612.94;;;8.51;72.59
27805;BME280;15183;51.350;11.102;2024-03-06T07:15:37;100639.84;;;8.90;72.53
27805;BME280;15183;51.350;11.102;2024-03-06T07:18:03;100639.84;;;8.90;72.75
27805;BME280;15183;51.350;11.102;2024-03-06T07:20:31;100631.72;;;8.91;72.80
27805;BME280;15183;51.350;11.102;2024-03-06T07:22:58;100651.53;;;9.09;72.87
27805;BME280;15183;51.350;11.102;2024-03-06T07:25:25;100620.75;;;8.94;72.69
27805;BME280;15183;51.350;11.102;2024-03-06T07:27:51;100606.25;;;8.83;72.46
27805;BME280;15183;51.350;11.102;2024-03-06T07:30:17;100626.47;;;8.98;72.56
27805;BME280;15183;51.350;11.102;2024-03-06T07:32:44;100652.16;;;9.11;72.39
27805;BME280;15183;51.350;11.102;2024-03-06T07:35:11;100660.75;;;9.20;72.16
27805;BME280;15183;51.350;11.102;2024-03-06T07:37:38;100658.69;;;9.15;72.10
27805;BME280;15183;51.350;11.102;2024-03-06T07:40:09;100653.72;;;9.05;71.70
27805;BME280;15183;51.350;11.102;2024-03-06T07:42:36;100660.25;;;9.03;72.02
27805;BME280;15183;51.350;11.102;2024-03-06T07:45:05;100661.50;;;9.07;72.18
27805;BME280;15183;51.350;11.102;2024-03-06T07:47:33;100648.19;;;8.93;72.19
27805;BME280;15183;51.350;11.102;2024-03-06T07:50:00;100636.84;;;8.71;71.65
27805;BME280;15183;51.350;11.102;2024-03-06T07:52:27;100670.19;;;9.01;71.86
27805;BME280;15183;51.350;11.102;2024-03-06T07:54:53;100680.56;;;9.02;72.40
27805;BME280;15183;51.350;11.102;2024-03-06T07:57:20;100663.06;;;9.01;72.68
27805;BME280;15183;51.350;11.102;2024-03-06T07:59:47;100662.16;;;9.16;72.98
27805;BME280;15183;51.350;11.102;2024-03-06T08:02:14;100677.91;;;9.37;73.05
27805;BME280;15183;51.350;11.102;2024-03-06T08:04:41;100663.69;;;9.45;73.01
27805;BME280;15183;51.350;11.102;2024-03-06T08:07:08;100680.66;;;9.64;72.64
27805;BME280;15183;51.350;11.102;2024-03-06T08:09:34;100671.91;;;9.64;72.14
27805;BME280;15183;51.350;11.102;2024-03-06T08:12:02;100611.34;;;9.27;72.22
27805;BME280;15183;51.350;11.102;2024-03-06T08:14:28;100653.97;;;9.52;72.48
27805;BME280;15183;51.350;11.102;2024-03-06T08:16:54;100644.00;;;9.48;72.19
27805;BME280;15183;51.350;11.102;2024-03-06T08:19:22;100674.41;;;9.85;72.67
27805;BME280;15183;51.350;11.102;2024-03-06T08:22:16;100685.66;;;10.08;73.07
27805;BME280;15183;51.350;11.102;2024-03-06T08:24:43;100618.81;;;9.79;73.12
27805;BME280;15183;51.350;11.102;2024-03-06T08:27:09;100680.22;;;10.30;72.84
27805;BME280;15183;51.350;11.102;2024-03-06T08:29:35;100694.69;;;10.34;71.57
27805;BME280;15183;51.350;11.102;2024-03-06T08:32:02;100683.47;;;10.32;71.95
27805;BME280;15183;51.350;11.102;2024-03-06T08:34:29;100686.94;;;10.39;72.53
27805;BME280;15183;51.350;11.102;2024-03-06T08:36:57;100706.13;;;10.54;72.51
27805;BME280;15183;51.350;11.102;2024-03-06T08:39:24;100634.34;;;10.09;71.66
27805;BME280;15183;51.350;11.102;2024-03-06T08:41:50;100707.53;;;10.50;72.15
27805;BME280;15183;51.350;11.102;2024-03-06T08:44:17;100646.38;;;10.11;71.41
27805;BME280;15183;51.350;11.102;2024-03-06T08:46:43;100678.59;;;10.28;71.54
27805;BME280;15183;51.350;11.102;2024-03-06T08:49:10;100650.03;;;10.17;71.63
27805;BME280;15183;51.350;11.102;2024-03-06T08:51:39;100706.94;;;10.55;71.30
27805;BME280;15183;51.350;11.102;2024-03-06T08:54:06;100674.34;;;10.41;72.16
27805;BME280;15183;51.350;11.102;2024-03-06T08:56:33;100732.44;;;10.76;72.39
27805;BME280;15183;51.350;11.102;2024-03-06T08:59:00;100636.41;;;10.27;71.82
27805;BME280;15183;51.350;11.102;2024-03-06T09:01:27;100717.31;;;10.77;71.88
27805;BME280;15183;51.350;11.102;2024-03-06T09:03:54;100705.72;;;10.71;71.26
27805;BME280;15183;51.350;11.102;2024-03-06T09:06:21;100689.22;;;10.42;71.61
27805;BME280;15183;51.350;11.102;2024-03-06T09:08:47;100716.53;;;10.56;71.87
27805;BME280;15183;51.350;11.102;2024-03-06T09:11:14;100715.31;;;10.52;72.04
27805;BME280;15183;51.350;11.102;2024-03-06T09:13:41;100713.66;;;10.44;72.44
27805;BME280;15183;51.350;11.102;2024-03-06T09:16:07;100702.66;;;10.47;72.58
27805;BME280;15183;51.350;11.102;2024-03-06T09:18:33;100697.97;;;10.56;72.57
27805;BME280;15183;51.350;11.102;2024-03-06T09:21:00;100712.03;;;10.63;72.99
27805;BME280;15183;51.350;11.102;2024-03-06T09:23:26;100667.59;;;10.45;72.59
27805;BME280;15183;51.350;11.102;2024-03-06T09:25:53;100699.22;;;10.67;72.87
27805;BME280;15183;51.350;11.102;2024-03-06T09:28:20;100671.47;;;10.49;72.41
27805;BME280;15183;51.350;11.102;2024-03-06T09:30:46;100735.47;;;10.86;71.52
27805;BME280;15183;51.350;11.102;2024-03-06T09:33:13;100717.53;;;10.75;71.37
27805;BME280;15183;51.350;11.102;2024-03-06T09:35:39;100676.16;;;10.54;72.46
27805;BME280;15183;51.350;11.102;2024-03-06T09:38:11;100698.00;;;10.63;71.86
27805;BME280;15183;51.350;11.102;2024-03-06T09:40:39;100689.63;;;10.59;71.30
27805;BME280;15183;51.350;11.102;2024-03-06T09:43:09;100700.00;;;10.67;71.74
27805;BME280;15183;51.350;11.102;2024-03-06T09:45:36;100640.47;;;10.36;71.35
27805;BME280;15183;51.350;11.102;2024-03-06T09:48:03;100677.59;;;10.56;71.61
27805;BME280;15183;51.350;11.102;2024-03-06T09:50:33;100685.75;;;10.62;71.60
27805;BME280;15183;51.350;11.102;2024-03-06T09:53:03;100668.00;;;10.55;71.35
27805;BME280;15183;51.350;11.102;2024-03-06T09:55:31;100682.88;;;10.77;71.89
27805;BME280;15183;51.350;11.102;2024-03-06T09:58:01;100709.16;;;10.98;71.45
27805;BME280;15183;51.350;11.102;2024-03-06T10:00:39;100720.34;;;11.27;71.47
27805;BME280;15183;51.350;11.102;2024-03-06T10:03:05;100676.69;;;11.17;71.34
27805;BME280;15183;51.350;11.102;2024-03-06T10:05:34;100713.94;;;11.55;71.01
27805;BME280;15183;51.350;11.102;2024-03-06T10:08:01;100703.50;;;11.61;70.40
27805;BME280;15183;51.350;11.102;2024-03-06T10:10:27;100727.66;;;11.84;69.90
27805;BME280;15183;51.350;11.102;2024-03-06T10:12:54;100758.81;;;12.16;69.39
27805;BME280;15183;51.350;11.102;2024-03-06T10:15:20;100701.34;;;11.83;70.26
27805;BME280;15183;51.350;11.102;2024-03-06T10:17:47;100701.50;;;11.95;70.24
27805;BME280;15183;51.350;11.102;2024-03-06T10:20:23;100722.56;;;12.28;69.69
27805;BME280;15183;51.350;11.102;2024-03-06T10:22:51;100725.38;;;12.34;69.95
27805;BME280;15183;51.350;11.102;2024-03-06T10:25:22;100694.56;;;12.26;70.41
27805;BME280;15183;51.350;11.102;2024-03-06T10:28:08;100734.13;;;12.66;70.07
27805;BME280;15183;51.350;11.102;2024-03-06T10:30:41;100760.94;;;12.90;70.28
27805;BME280;15183;51.350;11.102;2024-03-06T10:33:12;100750.75;;;12.87;70.76
27805;BME280;15183;51.350;11.102;2024-03-06T10:35:44;100762.19;;;13.13;70.55
27805;BME280;15183;51.350;11.102;2024-03-06T10:38:12;100763.69;;;13.27;70.04
27805;BME280;15183;51.350;11.102;2024-03-06T10:40:43;100752.97;;;13.34;70.47
27805;BME280;15183;51.350;11.102;2024-03-06T10:43:10;100745.47;;;13.50;70.34
27805;BME280;15183;51.350;11.102;2024-03-06T10:45:47;100766.97;;;13.85;70.23
27805;BME280;15183;51.350;11.102;2024-03-06T10:48:16;100742.09;;;13.92;69.99
27805;BME280;15183;51.350;11.102;2024-03-06T10:50:44;100715.22;;;13.93;69.43
27805;BME280;15183;51.350;11.102;2024-03-06T10:53:13;100774.38;;;14.44;68.50
27805;BME280;15183;51.350;11.102;2024-03-06T10:55:42;100770.69;;;14.57;68.67
27805;BME280;15183;51.350;11.102;2024-03-06T10:58:11;100705.38;;;14.36;68.49
27805;BME280;15183;51.350;11.102;2024-03-06T11:00:40;100725.81;;;14.54;68.62
27805;BME280;15183;51.350;11.102;2024-03-06T11:03:10;100715.38;;;14.65;68.09
27805;BME280;15183;51.350;11.102;2024-03-06T11:05:45;100678.03;;;14.41;66.58
27805;BME280;15183;51.350;11.102;2024-03-06T11:08:15;100721.63;;;14.58;65.61
27805;BME280;15183;51.350;11.102;2024-03-06T11:10:43;100754.84;;;14.74;65.26
27805;BME280;15183;51.350;11.102;2024-03-06T11:13:23;100722.16;;;14.37;64.66
27805;BME280;15183;51.350;11.102;2024-03-06T11:15:52;100764.25;;;14.35;63.78
27805;BME280;15183;51.350;11.102;2024-03-06T11:23:31;100699.88;;;13.21;64.15
27805;BME280;15183;51.350;11.102;2024-03-06T11:26:03;100762.31;;;13.43;63.24
27805;BME280;15183;51.350;11.102;2024-03-06T11:28:35;100761.84;;;13.28;63.57
27805;BME280;15183;51.350;11.102;2024-03-06T11:31:05;100759.44;;;13.20;64.29
27805;BME280;15183;51.350;11.102;2024-03-06T11:33:37;100771.81;;;13.14;64.44
27805;BME280;15183;51.350;11.102;2024-03-06T11:41:28;100732.50;;;12.65;64.04
27805;BME280;15183;51.350;11.102;2024-03-06T11:43:56;100774.53;;;12.82;63.92
27805;BME280;15183;51.350;11.102;2024-03-06T11:46:40;100737.03;;;12.65;63.88
27805;BME280;15183;51.350;11.102;2024-03-06T11:49:22;100774.38;;;12.77;64.31
27805;BME280;15183;51.350;11.102;2024-03-06T11:51:51;100768.06;;;12.71;63.87
27805;BME280;15183;51.350;11.102;2024-03-06T11:54:19;100687.25;;;12.21;63.60
27805;BME280;15183;51.350;11.102;2024-03-06T11:56:50;100766.03;;;12.66;63.32
27805;BME280;15183;51.350;11.102;2024-03-06T11:59:20;100761.56;;;12.67;63.12
27805;BME280;15183;51.350;11.102;2024-03-06T12:01:46;100766.88;;;12.67;62.22
27805;BME280;15183;51.350;11.102;2024-03-06T12:04:13;100764.22;;;12.67;62.38
27805;BME280;15183;51.350;11.102;2024-03-06T12:06:40;100750.19;;;12.53;61.48
27805;BME280;15183;51.350;11.102;2024-03-06T12:09:06;100770.41;;;12.61;61.77
27805;BME280;15183;51.350;11.102;2024-03-06T12:11:37;100765.06;;;12.61;61.13
27805;BME280;15183;51.350;11.102;2024-03-06T12:14:04;100710.13;;;12.22;61.75
27805;BME280;15183;51.350;11.102;2024-03-06T12:16:31;100702.66;;;12.06;61.21
27805;BME280;15183;51.350;11.102;2024-03-06T12:18:58;100702.25;;;12.09;61.56
27805;BME280;15183;51.350;11.102;2024-03-06T12:21:31;100752.28;;;12.44;62.21
27805;BME280;15183;51.350;11.102;2024-03-06T12:24:08;100707.47;;;12.22;62.46
27805;BME280;15183;51.350;11.102;2024-03-06T12:26:36;100768.06;;;12.71;61.71
27805;BME280;15183;51.350;11.102;2024-03-06T12:29:07;100757.44;;;12.71;61.99
27805;BME280;15183;51.350;11.102;2024-03-06T12:31:36;100771.47;;;12.78;61.29
27805;BME280;15183;51.350;11.102;2024-03-06T12:34:04;100695.56;;;12.32;60.63
27805;BME280;15183;51.350;11.102;2024-03-06T12:36:32;100766.81;;;12.73;61.25
27805;BME280;15183;51.350;11.102;2024-03-06T12:39:02;100718.91;;;12.55;61.58
27805;BME280;15183;51.350;11.102;2024-03-06T12:41:29;100743.69;;;12.74;61.93
27805;BME280;15183;51.350;11.102;2024-03-06T12:43:56;100685.81;;;12.51;60.88
27805;BME280;15183;51.350;11.102;2024-03-06T12:46:23;100746.03;;;12.89;60.45
27805;BME280;15183;51.350;11.102;2024-03-06T12:48:51;100743.41;;;12.82;60.98
27805;BME280;15183;51.350;11.102;2024-03-06T12:51:17;100751.19;;;12.84;60.72
27805;BME280;15183;51.350;11.102;2024-03-06T12:53:43;100768.13;;;12.90;61.17
27805;BME280;15183;51.350;11.102;2024-03-06T12:56:10;100761.38;;;12.87;61.95
27805;BME280;15183;51.350;11.102;2024-03-06T12:58:36;100717.34;;;12.72;61.68
27805;BME280;15183;51.350;11.102;2024-03-06T13:01:03;100712.22;;;12.71;61.39
27805;BME280;15183;51.350;11.102;2024-03-06T13:03:30;100716.50;;;12.72;61.13